Saturday, May 30, 2015, 12:16 PM EDT

KNHK, Nas Patuxent River Md

Location: Patuxent River, MD, United States Lat: 38.3
Local Time: 12:16 PM EDT (16:16 GMT) Lon: -76.4
Time Zone: US/Eastern Elev: 39 ft

Show me the last for .
Show Decoded

2015-05-30 11:52 METAR KNHK 301552Z 14010KT 10SM SCT025 SCT250 27/21 A3019 RMK AO2 SLP224
                 T02670206 =
2015-05-30 10:52 METAR KNHK 301452Z 16009KT 10SM FEW023 SCT250 27/19 A3020 RMK AO2 SLP226
                 T02720194 58007 =
2015-05-30 09:52 METAR KNHK 301352Z 21005KT 10SM FEW026 SCT250 26/19 A3021 RMK AO2 SLP229
                 T02610194 =
2015-05-30 08:52 METAR KNHK 301252Z 22008KT 10SM FEW030 SCT250 25/19 A3022 RMK AO2 SLP232
                 T02500194 =
2015-05-30 07:52 METAR KNHK 301152Z 22005KT 10SM FEW030 FEW060 SCT250 23/20 A3022 RMK AO2 SLP234
                 T02280200 10228 20200 53010 =
2015-05-30 07:01 METAR KNHK 301101Z 20006KT 10SM FEW030 SCT060 BKN250 22/20 A3021 RMK AO2
                 T02170200 =
2015-05-30 06:52 METAR KNHK 301052Z AUTO 19005KT 10SM BKN060 22/20 A3021 RMK AO2 SLP230 T02170200
                 =
2015-05-30 06:09 METAR KNHK 301009Z AUTO 00000KT 10SM FEW008 21/19 A3021 RMK AO2 T02060194 =
2015-05-30 05:52 METAR KNHK 300952Z AUTO 00000KT 10SM CLR 21/19 A3020 RMK AO2 SLP226 T02060194 =
2015-05-30 04:52 METAR KNHK 300852Z AUTO 16004KT 10SM FEW060 21/19 A3019 RMK AO2 SLP223 T02060194
                 55001 =
2015-05-30 03:52 METAR KNHK 300752Z AUTO 15003KT 10SM SCT055 21/19 A3018 RMK AO2 SLP221 T02060189
                 =
2015-05-30 02:52 METAR KNHK 300652Z AUTO 15003KT 10SM BKN055 21/19 A3020 RMK AO2 SLP225 T02060189
                 =
2015-05-30 00:52 METAR KNHK 300452Z AUTO 16005KT 10SM CLR 21/19 A3020 RMK AO2 SLP225 T02110189
                 402720194 =
2015-05-29 23:52 METAR KNHK 300352Z AUTO 17005KT 10SM CLR 22/19 A3021 RMK AO2 SLP231 T02170189 =
2015-05-29 22:52 METAR KNHK 300252Z 17007KT 10SM FEW040 SCT250 22/19 A3022 RMK AO2 SLP232
                 T02220189 50007 =
2015-05-29 20:52 METAR KNHK 300052Z 15010G15KT 10SM FEW040 BKN250 23/18 A3020 RMK AO2 SLP226
                 T02330183 =
2015-05-29 19:52 METAR KNHK 292352Z 14008KT 10SM FEW040 BKN250 24/17 A3020 RMK AO2 SLP226
                 T02440172 10272 20244 55001 =
2015-05-29 18:52 METAR KNHK 292252Z 14008KT 10SM FEW040 FEW080 SCT250 26/17 A3019 RMK AO2 SLP223
                 T02560172 =
2015-05-29 17:52 METAR KNHK 292152Z 15009KT 10SM FEW025 FEW040 SCT080 BKN250 27/18 A3020 RMK AO2
                 SLP226 T02670178 =
2015-05-29 16:52 METAR KNHK 292052Z 14011KT 10SM FEW025 FEW040 SCT250 27/19 A3020 RMK AO2 SLP227
                 T02670189 56014 =
2015-05-29 15:52 METAR KNHK 291952Z 14009KT 10SM FEW020 SCT040 BKN250 27/19 A3021 RMK AO2 SLP230
                 T02670194 =
2015-05-29 14:52 METAR KNHK 291852Z 13010KT 10SM FEW020 SCT040 SCT250 26/19 A3023 RMK AO2 SLP237
                 T02610194 =
2015-05-29 13:52 METAR KNHK 291752Z 12007KT 10SM FEW020 FEW040 SCT250 26/19 A3024 RMK AO2 SLP241
                 T02610189 10267 20222 58005 =

Support USWX by starting your Amazon purchase here.